Time;durP1;ratioP1;P1;durP2;ratioP2;P2;SDS_P1;SDS_P2;PMS_P1;PMS_P2;Temp;Humidity;BMP_temperature;BMP_pressure;BME280_temperature;BME280_humidity;BME280_pressure;Samples;Min_cycle;Max_cycle;Signal;HPM_P1;HPM_P2
2022/07/23 00:00:59;;;;;;;16.10;13.50;;;;;;;18.62;100.00;93298.59;2081446;28;20491;-82
2022/07/23 00:02:00;;;;;;;15.43;13.93;;;;;;;18.69;100.00;93297.50;2073403;28;20116;-81
2022/07/23 00:03:01;;;;;;;15.38;13.88;;;;;;;18.69;100.00;93284.72;2066542;28;20033;-82
2022/07/23 00:04:02;;;;;;;17.13;13.55;;;;;;;18.75;100.00;93277.47;2068093;28;20026;-81
2022/07/23 00:05:03;;;;;;;15.45;13.55;;;;;;;18.65;100.00;93275.25;2073329;28;20022;-80
2022/07/23 00:06:04;;;;;;;17.38;14.45;;;;;;;18.62;100.00;93277.69;2077638;28;20068;-81
2022/07/23 00:07:08;;;;;;;16.42;14.73;;;;;;;18.59;100.00;93275.16;2078247;28;20494;-81
2022/07/23 00:08:09;;;;;;;16.52;14.93;;;;;;;18.47;100.00;93273.44;2087784;28;20017;-82
2022/07/23 00:09:10;;;;;;;14.95;13.50;;;;;;;18.30;100.00;93273.09;2081190;28;20029;-81
2022/07/23 00:10:11;;;;;;;15.52;14.23;;;;;;;18.30;100.00;93275.78;2065383;28;20476;-80
2022/07/23 00:11:12;;;;;;;19.75;14.50;;;;;;;18.41;100.00;93264.47;2059528;28;20121;-80
2022/07/23 00:12:13;;;;;;;15.43;13.90;;;;;;;18.50;100.00;93264.41;2073409;28;20052;-81
2022/07/23 00:13:14;;;;;;;17.77;14.52;;;;;;;18.59;100.00;93253.50;2068931;28;20053;-81
2022/07/23 00:14:15;;;;;;;14.75;13.25;;;;;;;18.58;100.00;93252.75;2073248;28;20050;-81
2022/07/23 00:15:16;;;;;;;15.95;14.32;;;;;;;18.53;100.00;93258.06;2081504;28;20026;-81
2022/07/23 00:16:17;;;;;;;15.93;14.20;;;;;;;18.48;100.00;93266.81;2062658;28;20060;-80
2022/07/23 00:17:18;;;;;;;19.27;14.55;;;;;;;18.51;100.00;93272.03;2071684;28;20018;-81
2022/07/23 00:18:19;;;;;;;15.15;13.63;;;;;;;18.37;100.00;93270.78;2059794;28;20545;-81
2022/07/23 00:19:20;;;;;;;18.10;14.38;;;;;;;18.35;100.00;93275.19;2073317;28;20057;-81
2022/07/23 00:20:21;;;;;;;16.45;14.27;;;;;;;18.39;100.00;93262.19;2069713;28;20022;-81
2022/07/23 00:21:22;;;;;;;21.92;15.20;;;;;;;18.41;100.00;93256.34;2078327;28;20049;-82
2022/07/23 00:22:23;;;;;;;15.93;14.40;;;;;;;18.33;100.00;93250.53;2072284;28;20026;-80
2022/07/23 00:23:24;;;;;;;17.95;14.15;;;;;;;18.30;100.00;93240.63;2064592;28;20038;-81
2022/07/23 00:24:25;;;;;;;18.75;14.95;;;;;;;18.24;100.00;93240.50;2078613;28;20429;-82
2022/07/23 00:25:27;;;;;;;18.00;14.65;;;;;;;18.30;100.00;93232.50;2087779;28;20021;-81
2022/07/23 00:26:28;;;;;;;17.05;14.52;;;;;;;18.34;100.00;93231.13;2065290;28;20072;-82
2022/07/23 00:27:29;;;;;;;16.33;14.63;;;;;;;18.23;100.00;93219.34;2065491;28;20443;-82
2022/07/23 00:28:30;;;;;;;18.02;14.68;;;;;;;18.14;100.00;93225.56;2073232;28;20033;-81
2022/07/23 00:29:31;;;;;;;16.52;14.60;;;;;;;18.09;100.00;93242.44;2072917;28;20072;-82
2022/07/23 00:30:32;;;;;;;17.00;15.00;;;;;;;18.13;100.00;93243.00;2081195;28;20410;-82
2022/07/23 00:31:33;;;;;;;15.43;13.65;;;;;;;18.20;100.00;93242.66;2083774;28;20167;-81
2022/07/23 00:32:53;;;;;;;16.08;14.40;;;;;;;18.20;100.00;93256.19;2077442;28;20025;-82
2022/07/23 00:33:56;;;;;;;16.05;14.15;;;;;;;18.20;100.00;93255.44;2078998;28;20108;-82
2022/07/23 00:34:57;;;;;;;18.40;14.13;;;;;;;18.35;100.00;93250.81;2073346;28;20466;-82
2022/07/23 00:35:58;;;;;;;16.30;14.32;;;;;;;18.25;100.00;93262.91;2069392;28;20026;-82
2022/07/23 00:36:59;;;;;;;17.23;15.48;;;;;;;18.22;100.00;93258.41;2069094;28;20057;-81
2022/07/23 00:38:01;;;;;;;16.98;15.23;;;;;;;18.32;100.00;93267.97;2069314;28;20109;-82
2022/07/23 00:39:02;;;;;;;15.95;14.30;;;;;;;18.36;100.00;93263.91;2080631;28;20037;-82
2022/07/23 00:40:03;;;;;;;15.60;13.95;;;;;;;18.22;100.00;93267.31;2091438;28;20409;-82
2022/07/23 00:41:04;;;;;;;16.67;14.43;;;;;;;18.36;100.00;93261.19;2089482;28;20090;-82
2022/07/23 00:42:05;;;;;;;16.17;13.80;;;;;;;18.41;100.00;93259.78;2070759;28;20038;-82
2022/07/23 00:43:07;;;;;;;17.27;14.55;;;;;;;18.43;100.00;93257.38;2065074;28;20424;-81
2022/07/23 00:44:25;;;;;;;17.77;15.25;;;;;;;18.52;100.00;93260.00;2073719;28;20021;-81
2022/07/23 00:45:26;;;;;;;17.13;13.88;;;;;;;18.34;100.00;93255.47;2073267;28;20034;-81
2022/07/23 00:46:27;;;;;;;16.48;14.30;;;;;;;18.27;100.00;93265.91;2064993;28;20499;-82
2022/07/23 00:47:28;;;;;;;18.85;14.13;;;;;;;18.21;100.00;93268.50;2075953;28;20029;-82
2022/07/23 00:48:29;;;;;;;15.63;14.02;;;;;;;18.21;100.00;93270.44;2072986;28;20064;-81
2022/07/23 00:49:31;;;;;;;16.92;14.98;;;;;;;18.18;100.00;93265.97;2080773;28;20474;-82
2022/07/23 00:50:32;;;;;;;16.15;14.55;;;;;;;18.14;100.00;93274.25;2076347;28;20025;-82
2022/07/23 00:51:33;;;;;;;15.52;13.88;;;;;;;18.19;100.00;93275.59;2070623;28;20593;-82
2022/07/23 00:52:35;;;;;;;16.55;14.45;;;;;;;18.23;100.00;93274.19;2067124;28;20026;-80
2022/07/23 00:53:36;;;;;;;16.00;14.40;;;;;;;18.29;100.00;93268.91;2065143;28;20023;-82
2022/07/23 00:54:38;;;;;;;15.55;13.95;;;;;;;18.30;100.00;93270.38;2065285;28;20500;-81
2022/07/23 00:55:39;;;;;;;15.90;14.13;;;;;;;18.27;100.00;93269.38;2076257;28;20108;-82
2022/07/23 00:56:42;;;;;;;16.38;14.48;;;;;;;18.33;100.00;93278.34;2081854;28;20025;-82
2022/07/23 00:57:43;;;;;;;17.40;14.50;;;;;;;18.32;100.00;93273.41;2075443;28;20080;-82
2022/07/23 00:58:45;;;;;;;16.63;14.50;;;;;;;18.33;100.00;93281.03;2065139;28;20068;-83
2022/07/23 00:59:46;;;;;;;16.88;15.18;;;;;;;18.20;100.00;93279.78;2075584;28;20438;-82
2022/07/23 01:00:47;;;;;;;16.35;14.70;;;;;;;18.19;100.00;93270.19;2085680;28;20026;-82
2022/07/23 01:01:48;;;;;;;16.58;14.32;;;;;;;18.19;100.00;93278.28;2079509;28;20041;-82
2022/07/23 01:02:50;;;;;;;16.85;14.57;;;;;;;18.13;100.00;93261.94;2063668;28;20022;-81
2022/07/23 01:03:51;;;;;;;16.02;14.40;;;;;;;17.99;100.00;93260.66;2065619;28;20500;-81
2022/07/23 01:04:52;;;;;;;19.17;14.95;;;;;;;18.00;100.00;93250.56;2071177;28;20034;-81
2022/07/23 01:05:53;;;;;;;16.23;14.63;;;;;;;18.02;100.00;93248.19;2072753;28;20446;-81
2022/07/23 01:06:54;;;;;;;16.90;15.23;;;;;;;18.07;100.00;93237.47;2070713;28;20069;-82
2022/07/23 01:07:55;;;;;;;16.23;14.57;;;;;;;18.02;100.00;93229.97;2088384;28;20029;-82
2022/07/23 01:08:56;;;;;;;15.90;14.30;;;;;;;18.00;100.00;93231.66;2081051;28;20029;-82
2022/07/23 01:09:57;;;;;;;15.40;13.80;;;;;;;17.99;100.00;93230.16;2081077;28;20025;-81
2022/07/23 01:10:58;;;;;;;15.65;14.05;;;;;;;17.99;100.00;93238.25;2089192;28;20048;-80
2022/07/23 01:12:00;;;;;;;16.25;14.45;;;;;;;17.95;100.00;93241.13;2089225;28;20020;-81
2022/07/23 01:13:07;;;;;;;16.45;13.13;;;;;;;17.99;100.00;93233.59;2089204;28;20490;-81
2022/07/23 01:14:12;;;;;;;15.18;13.77;;;;;;;17.96;100.00;93222.97;2086161;28;20052;-82
2022/07/23 01:15:13;;;;;;;16.95;14.25;;;;;;;18.00;100.00;93220.81;2072993;28;20498;-82
2022/07/23 01:16:14;;;;;;;17.58;14.60;;;;;;;17.95;100.00;93213.34;2064846;28;20026;-82
2022/07/23 01:17:15;;;;;;;15.52;14.00;;;;;;;17.99;100.00;93235.56;2076478;28;20108;-82
2022/07/23 01:18:16;;;;;;;15.82;14.13;;;;;;;17.98;100.00;93225.97;2087155;28;20028;-82
2022/07/23 01:19:18;;;;;;;16.15;13.70;;;;;;;18.07;100.00;93212.38;2072721;28;20057;-81
2022/07/23 01:20:19;;;;;;;15.48;13.80;;;;;;;17.95;100.00;93226.88;2064984;28;20048;-82
2022/07/23 01:21:20;;;;;;;15.68;14.05;;;;;;;17.92;100.00;93230.50;2072910;28;20765;-81
2022/07/23 01:22:23;;;;;;;14.63;13.32;;;;;;;18.13;100.00;93224.06;2085787;28;20545;-81
2022/07/23 01:23:24;;;;;;;15.88;14.35;;;;;;;18.10;100.00;93227.69;2073090;28;20021;-82
2022/07/23 01:24:25;;;;;;;15.80;14.27;;;;;;;18.05;100.00;93231.78;2072746;28;20116;-80
2022/07/23 01:25:26;;;;;;;15.20;13.57;;;;;;;18.04;100.00;93234.94;2078052;28;20025;-82
2022/07/23 01:26:27;;;;;;;17.58;13.88;;;;;;;18.05;100.00;93239.91;2073638;28;20025;-81
2022/07/23 01:27:28;;;;;;;17.80;13.73;;;;;;;18.02;100.00;93226.53;2069880;28;20021;-81
2022/07/23 01:28:29;;;;;;;15.65;13.68;;;;;;;17.98;100.00;93221.28;2069514;28;20083;-80
2022/07/23 01:29:30;;;;;;;19.10;14.10;;;;;;;17.99;100.00;93198.44;2072622;28;20030;-81
2022/07/23 01:30:31;;;;;;;15.95;14.35;;;;;;;17.96;100.00;93188.56;2080288;28;20145;-81
2022/07/23 01:31:32;;;;;;;15.63;13.95;;;;;;;17.86;100.00;93187.84;2072731;28;20022;-81
2022/07/23 01:32:56;;;;;;;15.32;13.90;;;;;;;17.97;100.00;93187.34;2073259;28;20442;-81
2022/07/23 01:33:57;;;;;;;17.60;13.90;;;;;;;17.87;100.00;93204.84;2077452;28;20033;-82
2022/07/23 01:34:58;;;;;;;15.77;14.18;;;;;;;17.99;100.00;93201.16;2079349;28;20021;-81
2022/07/23 01:35:59;;;;;;;14.88;13.30;;;;;;;17.97;100.00;93205.53;2079341;28;20021;-82
2022/07/23 01:37:00;;;;;;;15.02;13.30;;;;;;;18.09;100.00;93201.84;2076202;28;20422;-81
2022/07/23 01:38:01;;;;;;;14.43;12.90;;;;;;;17.99;100.00;93195.00;2068870;28;20038;-81
2022/07/23 01:39:03;;;;;;;14.25;12.73;;;;;;;18.05;100.00;93179.63;2080785;28;20029;-82
2022/07/23 01:40:05;;;;;;;14.35;12.80;;;;;;;17.96;100.00;93183.16;2080605;28;20021;-82
2022/07/23 01:41:06;;;;;;;16.15;13.05;;;;;;;17.96;100.00;93174.28;2080778;28;20113;-82
2022/07/23 01:42:07;;;;;;;14.00;11.93;;;;;;;17.95;100.00;93175.47;2073106;28;20104;-82
2022/07/23 01:43:08;;;;;;;12.75;11.43;;;;;;;18.08;100.00;93173.28;2072604;28;20026;-82
2022/07/23 01:44:09;;;;;;;16.95;12.73;;;;;;;18.18;100.00;93166.63;2073584;28;20021;-81
2022/07/23 01:45:10;;;;;;;14.02;12.10;;;;;;;18.09;100.00;93172.09;2072490;28;20108;-82
2022/07/23 01:46:12;;;;;;;13.93;12.52;;;;;;;18.10;100.00;93173.59;2080763;28;20470;-81
2022/07/23 01:47:13;;;;;;;13.27;11.65;;;;;;;18.10;100.00;93179.00;2077532;28;20033;-81
2022/07/23 01:48:14;;;;;;;13.52;11.52;;;;;;;18.12;100.00;93181.97;2072475;28;20021;-82
2022/07/23 01:49:15;;;;;;;14.25;12.30;;;;;;;18.02;100.00;93180.56;2060038;28;20023;-82
2022/07/23 01:50:16;;;;;;;13.32;11.95;;;;;;;18.03;100.00;93182.78;2064429;28;20034;-82
2022/07/23 01:51:17;;;;;;;12.30;11.10;;;;;;;17.99;100.00;93184.16;2063087;28;20102;-81
2022/07/23 01:52:17;;;;;;;16.02;11.93;;;;;;;17.88;100.00;93183.97;2069348;28;20025;-81
2022/07/23 01:53:33;;;;;;;16.60;12.27;;;;;;;17.79;100.00;93174.69;2072439;28;20604;-81
2022/07/23 01:54:35;;;;;;;12.63;11.30;;;;;;;17.76;100.00;93172.16;2082308;28;20064;-81
2022/07/23 01:55:36;;;;;;;13.48;11.48;;;;;;;17.73;100.00;93168.38;2083066;28;20032;-81
2022/07/23 01:56:36;;;;;;;12.68;11.30;;;;;;;17.70;100.00;93171.28;2079211;28;20021;-82
2022/07/23 01:57:38;;;;;;;14.88;11.80;;;;;;;17.67;100.00;93164.06;2072517;28;20025;-82
2022/07/23 01:58:38;;;;;;;14.77;11.40;;;;;;;17.63;100.00;93173.09;2072312;28;20510;-82
2022/07/23 01:59:39;;;;;;;12.93;11.63;;;;;;;17.60;100.00;93174.03;2072496;28;20029;-82
2022/07/23 02:00:40;;;;;;;12.52;11.25;;;;;;;17.64;100.00;93173.84;2080495;28;20022;-82
2022/07/23 02:01:41;;;;;;;11.93;10.82;;;;;;;17.89;100.00;93180.03;2088849;28;20028;-81
2022/07/23 02:02:42;;;;;;;13.15;11.25;;;;;;;17.77;100.00;93176.34;2074350;28;20459;-81
2022/07/23 02:03:43;;;;;;;14.07;11.35;;;;;;;17.71;100.00;93180.88;2072756;28;20392;-82
2022/07/23 02:04:44;;;;;;;15.02;10.27;;;;;;;17.69;100.00;93175.94;2085698;28;20024;-82
2022/07/23 02:05:45;;;;;;;13.93;11.38;;;;;;;17.61;100.00;93178.22;2072116;28;20054;-82
2022/07/23 02:06:47;;;;;;;13.32;11.00;;;;;;;17.59;100.00;93177.19;2079076;28;20041;-82
2022/07/23 02:07:48;;;;;;;13.45;12.05;;;;;;;17.50;100.00;93179.94;2086943;28;20454;-83
2022/07/23 02:08:49;;;;;;;14.00;11.90;;;;;;;17.49;100.00;93179.19;2087439;28;20025;-82
2022/07/23 02:09:50;;;;;;;12.75;11.40;;;;;;;17.65;100.00;93182.69;2078655;28;20021;-81
2022/07/23 02:10:51;;;;;;;12.40;11.20;;;;;;;17.56;100.00;93186.97;2080470;28;20022;-83
2022/07/23 02:11:52;;;;;;;14.32;11.82;;;;;;;17.60;100.00;93184.06;2081565;28;20061;-82
2022/07/23 02:14:38;;;;;;;14.05;11.50;;;;;;;17.62;100.00;93187.06;2140530;27;20586;-87
2022/07/23 02:15:39;;;;;;;12.73;11.43;;;;;;;17.57;100.00;93196.56;2116444;27;20032;-85
2022/07/23 02:16:40;;;;;;;11.52;10.23;;;;;;;17.50;100.00;93196.88;2128198;27;20396;-88
2022/07/23 02:17:41;;;;;;;11.98;10.45;;;;;;;17.48;100.00;93199.31;2113305;28;20024;-86
2022/07/23 02:18:42;;;;;;;12.20;10.90;;;;;;;17.45;100.00;93189.41;2106538;28;20165;-90
2022/07/23 02:19:43;;;;;;;12.40;10.82;;;;;;;17.43;100.00;93186.44;2096508;28;20063;-88
2022/07/23 02:20:44;;;;;;;13.35;11.07;;;;;;;17.43;100.00;93188.34;2096417;28;20097;-86
2022/07/23 02:21:45;;;;;;;14.20;11.50;;;;;;;17.33;100.00;93187.66;2121774;27;20023;-87
2022/07/23 02:22:46;;;;;;;14.63;11.30;;;;;;;17.24;100.00;93185.00;2111176;28;20565;-88
2022/07/23 02:23:47;;;;;;;16.08;11.07;;;;;;;17.35;100.00;93196.06;2110192;28;20021;-88
2022/07/23 02:24:48;;;;;;;15.27;10.88;;;;;;;17.36;100.00;93192.16;2110140;28;20043;-88
2022/07/23 02:25:49;;;;;;;12.68;11.38;;;;;;;17.24;100.00;93190.41;2112757;28;20035;-88
2022/07/23 02:26:50;;;;;;;13.52;11.20;;;;;;;17.20;100.00;93195.22;2121613;28;20026;-87
2022/07/23 02:27:51;;;;;;;12.02;10.88;;;;;;;17.14;100.00;93197.78;2102228;28;20074;-88
2022/07/23 02:28:52;;;;;;;14.43;11.65;;;;;;;17.10;100.00;93206.06;2088640;28;20094;-87
2022/07/23 02:29:53;;;;;;;12.55;11.25;;;;;;;17.13;100.00;93195.56;2104446;28;20398;-87
2022/07/23 02:30:54;;;;;;;13.30;11.88;;;;;;;17.11;100.00;93196.00;2100096;28;20059;-87
2022/07/23 02:31:55;;;;;;;12.90;11.50;;;;;;;17.15;100.00;93201.97;2109404;28;20039;-87
2022/07/23 02:32:56;;;;;;;12.85;11.40;;;;;;;17.06;100.00;93202.75;2108935;27;20047;-88
2022/07/23 02:33:57;;;;;;;12.23;11.02;;;;;;;17.13;100.00;93211.75;2110155;28;20024;-87
2022/07/23 02:35:11;;;;;;;13.77;12.38;;;;;;;17.17;100.00;93209.66;2104769;28;20024;-87
2022/07/23 02:36:12;;;;;;;13.55;12.13;;;;;;;17.20;100.00;93212.16;2110307;28;20027;-87
2022/07/23 02:37:13;;;;;;;12.52;11.23;;;;;;;17.21;100.00;93213.69;2104759;28;20020;-87
2022/07/23 02:38:14;;;;;;;15.02;12.48;;;;;;;17.23;100.00;93213.97;2110687;28;20024;-86
2022/07/23 02:39:15;;;;;;;14.35;11.70;;;;;;;17.21;100.00;93208.28;2104797;27;20062;-87
2022/07/23 02:40:17;;;;;;;12.00;10.77;;;;;;;17.17;100.00;93217.75;2121184;27;20015;-88
2022/07/23 02:41:18;;;;;;;15.48;11.60;;;;;;;17.14;100.00;93214.00;2110254;28;20044;-87
2022/07/23 02:42:19;;;;;;;13.50;11.50;;;;;;;17.16;100.00;93219.69;2102635;28;20089;-87
2022/07/23 02:43:20;;;;;;;15.68;11.13;;;;;;;17.24;100.00;93228.97;2096950;28;20051;-87
2022/07/23 02:44:21;;;;;;;12.95;11.65;;;;;;;17.21;100.00;93216.38;2108636;28;20389;-87
2022/07/23 02:45:22;;;;;;;11.93;10.82;;;;;;;17.16;100.00;93216.25;2112808;28;20024;-87
2022/07/23 02:46:23;;;;;;;13.25;11.85;;;;;;;17.22;100.00;93219.84;2116513;28;20020;-87
2022/07/23 02:47:24;;;;;;;11.85;10.65;;;;;;;17.26;100.00;93218.47;2103952;28;20050;-87
2022/07/23 02:48:24;;;;;;;12.77;11.55;;;;;;;17.28;100.00;93216.03;2103514;28;20016;-87
2022/07/23 02:49:25;;;;;;;12.13;10.40;;;;;;;17.33;100.00;93217.38;2096102;28;20098;-88
2022/07/23 02:50:26;;;;;;;12.75;10.80;;;;;;;17.27;100.00;93216.50;2108024;28;20476;-87
2022/07/23 02:51:27;;;;;;;12.02;10.82;;;;;;;17.25;100.00;93221.59;2101491;28;20600;-88
2022/07/23 02:52:28;;;;;;;12.05;10.77;;;;;;;17.24;100.00;93222.81;2108858;28;20020;-87
2022/07/23 02:53:29;;;;;;;12.20;10.98;;;;;;;17.20;100.00;93222.97;2109008;28;20142;-87
2022/07/23 02:54:30;;;;;;;13.90;11.32;;;;;;;17.17;100.00;93215.06;2096135;28;20025;-87
2022/07/23 02:55:31;;;;;;;12.57;11.38;;;;;;;17.05;100.00;93217.47;2093676;28;20866;-87
2022/07/23 02:56:32;;;;;;;12.23;10.73;;;;;;;17.06;100.00;93205.47;2096098;28;20063;-88
2022/07/23 02:57:33;;;;;;;12.75;11.38;;;;;;;16.93;100.00;93206.84;2095992;28;20024;-87
2022/07/23 02:58:34;;;;;;;13.48;12.00;;;;;;;16.99;100.00;93205.81;2121177;28;20020;-87
2022/07/23 02:59:35;;;;;;;14.43;12.05;;;;;;;16.95;100.00;93201.75;2108304;28;20428;-87
2022/07/23 03:00:36;;;;;;;13.35;11.75;;;;;;;17.05;100.00;93209.38;2100422;28;20489;-88
2022/07/23 03:01:37;;;;;;;14.15;12.65;;;;;;;17.06;100.00;93216.25;2104374;28;20496;-87
2022/07/23 03:02:38;;;;;;;14.10;12.43;;;;;;;17.02;100.00;93212.97;2094068;28;20111;-88
2022/07/23 03:03:39;;;;;;;12.80;11.63;;;;;;;16.99;100.00;93210.44;2104250;28;20031;-87
2022/07/23 03:04:42;;;;;;;13.27;11.93;;;;;;;16.90;100.00;93210.44;2113895;28;20019;-87
2022/07/23 03:05:43;;;;;;;12.52;11.15;;;;;;;16.94;100.00;93208.34;2106178;28;20047;-86
2022/07/23 03:06:44;;;;;;;14.88;11.15;;;;;;;16.95;100.00;93212.56;2110008;28;20028;-87
2022/07/23 03:07:45;;;;;;;12.88;11.10;;;;;;;16.91;100.00;93215.41;2104176;28;20024;-87
2022/07/23 03:08:46;;;;;;;13.23;11.93;;;;;;;16.88;100.00;93226.38;2104364;28;20020;-87
2022/07/23 03:09:47;;;;;;;13.63;11.80;;;;;;;16.83;100.00;93223.06;2104236;28;20028;-86
2022/07/23 03:10:49;;;;;;;12.40;11.20;;;;;;;16.84;100.00;93221.88;2087720;28;20028;-87
2022/07/23 03:11:50;;;;;;;13.80;10.65;;;;;;;17.12;100.00;93213.72;2094980;28;20116;-86
2022/07/23 03:12:51;;;;;;;12.82;11.52;;;;;;;17.02;100.00;93215.66;2099198;28;20515;-86
2022/07/23 03:13:52;;;;;;;12.55;11.38;;;;;;;16.94;100.00;93216.44;2092655;28;20473;-87
2022/07/23 03:14:53;;;;;;;12.30;11.05;;;;;;;16.81;100.00;93230.13;2079288;28;20091;-87
2022/07/23 03:15:53;;;;;;;11.45;10.27;;;;;;;16.89;100.00;93231.31;2084200;28;20048;-87
2022/07/23 03:16:54;;;;;;;13.00;11.48;;;;;;;16.84;100.00;93242.72;2103347;28;20454;-87
2022/07/23 03:17:55;;;;;;;14.30;11.50;;;;;;;16.83;100.00;93244.66;2087744;28;20021;-87
2022/07/23 03:18:56;;;;;;;13.00;11.75;;;;;;;16.82;100.00;93253.97;2097491;28;20024;-87
2022/07/23 03:19:57;;;;;;;15.13;11.00;;;;;;;16.89;100.00;93242.09;2104075;28;20059;-87
2022/07/23 03:20:59;;;;;;;12.70;11.43;;;;;;;16.83;100.00;93246.63;2095730;28;20029;-87
2022/07/23 03:22:00;;;;;;;14.70;11.65;;;;;;;16.87;100.00;93241.81;2086384;28;20104;-87
2022/07/23 03:23:01;;;;;;;12.68;11.40;;;;;;;16.88;100.00;93245.28;2095852;28;20021;-87
2022/07/23 03:24:02;;;;;;;12.48;11.27;;;;;;;16.83;100.00;93241.97;2095939;28;20453;-87
2022/07/23 03:25:03;;;;;;;13.63;12.05;;;;;;;16.79;100.00;93240.63;2094178;28;20040;-88
2022/07/23 03:26:04;;;;;;;13.05;11.25;;;;;;;16.82;100.00;93239.72;2102083;28;20123;-88
2022/07/23 03:27:05;;;;;;;12.32;11.00;;;;;;;16.84;100.00;93248.13;2096156;28;20473;-87
2022/07/23 03:28:06;;;;;;;12.68;11.38;;;;;;;16.85;100.00;93236.09;2082134;28;20029;-88
2022/07/23 03:29:07;;;;;;;13.13;11.75;;;;;;;16.85;100.00;93246.91;2085450;28;20858;-87
2022/07/23 03:30:08;;;;;;;12.73;11.40;;;;;;;16.88;100.00;93240.63;2092470;28;20119;-87
2022/07/23 03:31:09;;;;;;;13.25;11.15;;;;;;;16.91;100.00;93226.22;2089892;28;20025;-87
2022/07/23 03:32:10;;;;;;;12.48;11.20;;;;;;;16.95;100.00;93224.13;2084941;28;20099;-87
2022/07/23 03:33:16;;;;;;;12.55;11.35;;;;;;;16.94;100.00;93217.19;2066604;28;20045;-88
2022/07/23 03:34:18;;;;;;;15.25;11.23;;;;;;;16.96;100.00;93219.44;2079370;28;20371;-87
2022/07/23 03:35:19;;;;;;;14.40;11.55;;;;;;;16.89;100.00;93230.56;2093568;28;20020;-88
2022/07/23 03:36:20;;;;;;;13.48;11.25;;;;;;;16.96;100.00;93233.69;2088315;28;20102;-87
2022/07/23 03:37:21;;;;;;;13.95;11.07;;;;;;;17.00;100.00;93242.41;2084753;28;20060;-87
2022/07/23 03:38:22;;;;;;;12.60;11.50;;;;;;;16.94;100.00;93240.75;2078769;28;20475;-87
2022/07/23 03:39:23;;;;;;;12.32;11.02;;;;;;;16.89;100.00;93247.50;2082644;28;20159;-87
2022/07/23 03:40:24;;;;;;;14.18;12.73;;;;;;;16.85;100.00;93250.34;2079177;28;20017;-87
2022/07/23 03:41:25;;;;;;;13.30;11.98;;;;;;;16.82;100.00;93239.72;2086688;28;20033;-87
2022/07/23 03:42:26;;;;;;;12.52;11.23;;;;;;;16.84;100.00;93237.31;2086365;28;20016;-87
2022/07/23 03:43:27;;;;;;;14.13;11.80;;;;;;;16.82;100.00;93240.47;2101748;28;20074;-87
2022/07/23 03:44:29;;;;;;;13.25;10.85;;;;;;;16.80;100.00;93250.22;2090103;28;20550;-87
2022/07/23 03:45:30;;;;;;;13.63;12.30;;;;;;;16.74;100.00;93247.38;2074442;28;20018;-87
2022/07/23 03:46:31;;;;;;;13.13;11.73;;;;;;;16.76;100.00;93258.47;2076359;28;20108;-88
2022/07/23 03:47:52;;;;;;;14.60;12.02;;;;;;;16.82;100.00;93275.56;2098143;28;20400;-87
2022/07/23 03:48:52;;;;;;;13.07;11.70;;;;;;;16.84;100.00;93275.88;2095691;28;20034;-87
2022/07/23 03:49:53;;;;;;;13.68;12.25;;;;;;;16.83;100.00;93273.63;2081611;28;20414;-87
2022/07/23 03:50:54;;;;;;;13.05;11.77;;;;;;;16.89;100.00;93273.75;2081991;28;20021;-87
2022/07/23 03:51:55;;;;;;;13.98;11.73;;;;;;;16.89;100.00;93284.56;2078471;28;20030;-87
2022/07/23 03:52:56;;;;;;;13.65;12.10;;;;;;;16.84;100.00;93275.88;2089558;28;20032;-87
2022/07/23 03:53:57;;;;;;;12.80;11.32;;;;;;;16.85;100.00;93268.50;2104671;28;20028;-87
2022/07/23 03:54:58;;;;;;;12.48;11.20;;;;;;;16.89;100.00;93262.97;2105571;28;20052;-87
2022/07/23 03:56:00;;;;;;;14.38;11.77;;;;;;;16.91;100.00;93255.16;2090059;28;20021;-87
2022/07/23 03:57:01;;;;;;;16.27;12.00;;;;;;;16.96;100.00;93254.56;2085147;28;20020;-87
2022/07/23 03:58:02;;;;;;;12.90;11.60;;;;;;;16.82;100.00;93262.06;2085834;28;20025;-87
2022/07/23 03:59:03;;;;;;;13.00;11.73;;;;;;;16.84;100.00;93256.22;2085202;28;20067;-86
2022/07/23 04:00:06;;;;;;;13.52;11.65;;;;;;;16.80;100.00;93250.22;2089196;28;20091;-86
2022/07/23 04:01:07;;;;;;;13.40;11.57;;;;;;;16.84;100.00;93246.16;2085275;28;20032;-87
2022/07/23 04:02:08;;;;;;;12.98;11.43;;;;;;;16.79;100.00;93246.78;2095680;28;20525;-87
2022/07/23 04:03:09;;;;;;;12.88;11.60;;;;;;;16.79;100.00;93246.03;2089344;28;20032;-87
2022/07/23 04:04:10;;;;;;;12.85;10.95;;;;;;;16.95;100.00;93256.50;2088912;28;20048;-86
2022/07/23 04:05:11;;;;;;;13.07;11.23;;;;;;;16.97;100.00;93261.44;2097092;28;20020;-87
2022/07/23 04:06:12;;;;;;;12.38;11.07;;;;;;;16.93;100.00;93269.69;2079711;28;20066;-87
2022/07/23 04:07:13;;;;;;;12.30;10.80;;;;;;;16.87;100.00;93285.03;2081730;28;20022;-87
2022/07/23 04:08:14;;;;;;;12.55;11.25;;;;;;;16.83;100.00;93290.56;2081683;28;20029;-87
2022/07/23 04:09:15;;;;;;;13.23;11.02;;;;;;;16.72;100.00;93289.50;2073630;28;20423;-87
2022/07/23 04:10:17;;;;;;;12.18;10.90;;;;;;;16.62;100.00;93288.75;2085874;28;20482;-86
2022/07/23 04:11:18;;;;;;;12.48;11.15;;;;;;;16.66;100.00;93286.66;2082003;28;20057;-87
2022/07/23 04:12:19;;;;;;;14.15;10.90;;;;;;;16.77;100.00;93295.09;2073741;28;20029;-88
2022/07/23 04:13:20;;;;;;;11.43;10.13;;;;;;;16.74;100.00;93285.19;2084347;28;20471;-86
2022/07/23 04:14:21;;;;;;;11.63;10.43;;;;;;;16.80;100.00;93277.22;2096994;28;20708;-87
2022/07/23 04:15:22;;;;;;;11.45;10.25;;;;;;;16.74;100.00;93284.44;2093109;28;20055;-87
2022/07/23 04:16:23;;;;;;;11.73;10.63;;;;;;;16.85;100.00;93287.41;2089847;28;20025;-86
2022/07/23 04:17:24;;;;;;;11.82;10.02;;;;;;;16.82;100.00;93285.63;2080946;28;20025;-86
2022/07/23 04:18:25;;;;;;;11.07;9.82;;;;;;;16.81;100.00;93290.28;2091215;28;20055;-86
2022/07/23 04:19:26;;;;;;;12.13;10.93;;;;;;;16.71;100.00;93279.91;2095239;28;20047;-86
2022/07/23 04:20:27;;;;;;;10.55;9.50;;;;;;;16.79;100.00;93275.72;2106721;27;20070;-87
2022/07/23 04:21:28;;;;;;;12.27;10.35;;;;;;;16.83;100.00;93266.28;2102968;28;20029;-86
2022/07/23 04:22:30;;;;;;;13.35;10.25;;;;;;;16.75;100.00;93275.13;2088166;28;20102;-86
2022/07/23 04:23:31;;;;;;;12.80;10.40;;;;;;;16.80;100.00;93277.97;2090246;28;20059;-86
2022/07/23 04:24:32;;;;;;;11.98;9.68;;;;;;;16.89;100.00;93276.47;2082691;28;20013;-86
2022/07/23 04:25:57;;;;;;;12.23;10.93;;;;;;;16.78;100.00;93283.06;2100678;28;20028;-85
2022/07/23 04:26:58;;;;;;;10.75;9.63;;;;;;;16.79;100.00;93265.69;2101549;28;20032;-86
2022/07/23 04:27:58;;;;;;;10.98;9.88;;;;;;;16.70;100.00;93264.91;2096891;28;20025;-86
2022/07/23 04:28:59;;;;;;;10.82;9.82;;;;;;;16.66;100.00;93256.22;2081621;28;20457;-86
2022/07/23 04:30:00;;;;;;;13.48;10.43;;;;;;;16.60;100.00;93258.78;2081764;28;20485;-86
2022/07/23 04:31:01;;;;;;;12.05;10.80;;;;;;;16.47;100.00;93264.31;2081663;28;20033;-86
2022/07/23 04:32:05;;;;;;;13.00;10.02;;;;;;;16.47;100.00;93266.25;2094103;28;20386;-86
2022/07/23 04:33:06;;;;;;;13.25;10.32;;;;;;;16.49;100.00;93263.84;2093962;28;20127;-85
2022/07/23 04:34:07;;;;;;;11.60;10.40;;;;;;;16.50;100.00;93265.34;2101041;28;20028;-86
2022/07/23 04:35:08;;;;;;;12.15;10.77;;;;;;;16.48;100.00;93271.22;2102062;28;20028;-86
2022/07/23 04:36:09;;;;;;;10.85;9.77;;;;;;;16.49;100.00;93272.69;2106266;28;20089;-86
2022/07/23 04:37:10;;;;;;;11.75;10.55;;;;;;;16.53;100.00;93259.06;2088395;28;20098;-86
2022/07/23 04:38:11;;;;;;;11.82;9.90;;;;;;;16.54;100.00;93266.69;2092336;28;20025;-86
2022/07/23 04:39:12;;;;;;;10.77;9.68;;;;;;;16.47;100.00;93269.72;2090394;28;20048;-86
2022/07/23 04:40:13;;;;;;;10.57;9.57;;;;;;;16.51;100.00;93261.47;2099889;28;20020;-86
2022/07/23 04:41:14;;;;;;;12.23;10.43;;;;;;;16.44;100.00;93261.75;2092768;28;20044;-86
2022/07/23 04:42:15;;;;;;;11.45;10.25;;;;;;;16.36;100.00;93267.44;2095228;28;20035;-85